PWSweather.com
Personal Weather Stations
Station Observations
IONTARIO88
Lincoln, ON L0R

Lincoln, ON L0R

Lat: 43.1763563, Lon: -79.4719525

Elevation: 297

Station Type: Davis Vantage Pro 2 Plus

http://www.beamsvillewx.ca

High Low Average
Temperature 29.7°F-1.3°C 26.2°F-3.2°C 28.1°F-2.2°C
Dew Point 27.4°F-2.6°C 23.7°F-4.6°C 26.0°F-3.3°C
Winds 8.0 mph 12.9 kmh Calm Calm 3.0 mph SE4.8 kmh SE
Wind Gusts 15.0 mph24.1 kmh -- 7.0 mph11.3 kmh
Humidity 93% 90% 91%
Pressure 30.19 in1022.4 mb 30.10 in1019.3 mb -
Precipitation 0.27 in6.9 mm - -
Hour Temp Dew Point Humidity Winds Wind Gusts Pressure Precip Precip Rate Daily Precip Total
12:00 AM 25.3°F-3.7°C 22.8°F-5.1°C 90% Calm Calm -- 30.15 in1021.0 mb 0.00 in0.0 mm 0.00 in0.0 mm 0.17 in4.3 mm
12:15 AM 25.9°F-3.4°C 23.4°F-4.8°C 90% Calm Calm -- 30.15 in1021.0 mb 0.00 in0.0 mm 0.00 in0.0 mm 0.17 in4.3 mm
12:30 AM 26.1°F-3.3°C 23.5°F-4.7°C 90% Calm Calm -- 30.15 in1021.0 mb 0.00 in0.0 mm 0.00 in0.0 mm 0.17 in4.3 mm
12:45 AM 26.1°F-3.3°C 23.5°F-4.7°C 90% Calm Calm 2.0 mph3.2 kmh 30.16 in1021.3 mb 0.00 in0.0 mm 0.00 in0.0 mm 0.17 in4.3 mm
01:00 AM 26.2°F-3.2°C 23.7°F-4.6°C 90% Calm Calm -- 30.16 in1021.3 mb 0.00 in0.0 mm 0.00 in0.0 mm 0.00 in0.0 mm
01:15 AM 26.4°F-3.1°C 23.9°F-4.5°C 90% Calm Calm -- 30.17 in1021.7 mb 0.00 in0.0 mm 0.00 in0.0 mm 0.00 in0.0 mm
01:30 AM 26.6°F-3.0°C 24.1°F-4.4°C 90% Calm Calm -- 30.16 in1021.3 mb 0.01 in0.3 mm 0.04 in1.0 mm 0.01 in0.3 mm
01:45 AM 26.8°F-2.9°C 24.2°F-4.3°C 90% Calm Calm 2.0 mph3.2 kmh 30.16 in1021.3 mb 0.01 in0.3 mm 0.00 in0.0 mm 0.01 in0.3 mm
02:00 AM 27.0°F-2.8°C 24.4°F-4.2°C 90% 1.0 mph S1.6 kmh S 3.0 mph4.8 kmh 30.16 in1021.3 mb 0.01 in0.3 mm 0.00 in0.0 mm 0.01 in0.3 mm
02:15 AM 27.1°F-2.7°C 24.9°F-3.9°C 91% 1.0 mph S1.6 kmh S 5.0 mph8.0 kmh 30.16 in1021.3 mb 0.01 in0.3 mm 0.00 in0.0 mm 0.01 in0.3 mm
02:30 AM 27.3°F-2.6°C 25.0°F-3.9°C 91% 2.0 mph SW3.2 kmh SW 6.0 mph9.7 kmh 30.16 in1021.3 mb 0.00 in0.0 mm 0.00 in0.0 mm 0.01 in0.3 mm
02:45 AM 27.9°F-2.3°C 25.8°F-3.4°C 92% 3.0 mph WNW4.8 kmh WNW 6.0 mph9.7 kmh 30.16 in1021.3 mb 0.01 in0.3 mm 0.04 in1.0 mm 0.02 in0.5 mm
03:00 AM 28.0°F-2.2°C 26.0°F-3.3°C 92% 2.0 mph NW3.2 kmh NW 5.0 mph8.0 kmh 30.17 in1021.7 mb 0.01 in0.3 mm 0.00 in0.0 mm 0.02 in0.5 mm
03:15 AM 28.0°F-2.2°C 25.8°F-3.4°C 91% 2.0 mph NNW3.2 kmh NNW 5.0 mph8.0 kmh 30.17 in1021.7 mb 0.01 in0.3 mm 0.00 in0.0 mm 0.02 in0.5 mm
03:30 AM 28.0°F-2.2°C 25.8°F-3.4°C 91% 1.0 mph NNW1.6 kmh NNW 3.0 mph4.8 kmh 30.17 in1021.7 mb 0.01 in0.3 mm 0.00 in0.0 mm 0.02 in0.5 mm
03:45 AM 28.0°F-2.2°C 25.8°F-3.4°C 91% Calm Calm 3.0 mph4.8 kmh 30.17 in1021.7 mb 0.00 in0.0 mm 0.00 in0.0 mm 0.02 in0.5 mm
04:00 AM 28.0°F-2.2°C 25.8°F-3.4°C 91% Calm Calm 1.0 mph1.6 kmh 30.17 in1021.7 mb 0.00 in0.0 mm 0.00 in0.0 mm 0.02 in0.5 mm
04:15 AM 28.0°F-2.2°C 25.8°F-3.4°C 91% Calm Calm -- 30.16 in1021.3 mb 0.00 in0.0 mm 0.00 in0.0 mm 0.02 in0.5 mm
04:30 AM 28.2°F-2.1°C 25.9°F-3.4°C 91% Calm Calm -- 30.16 in1021.3 mb 0.00 in0.0 mm 0.00 in0.0 mm 0.02 in0.5 mm
04:45 AM 27.9°F-2.3°C 25.6°F-3.6°C 91% Calm Calm 2.0 mph3.2 kmh 30.16 in1021.3 mb 0.00 in0.0 mm 0.00 in0.0 mm 0.02 in0.5 mm
05:00 AM 27.5°F-2.5°C 25.2°F-3.8°C 91% 1.0 mph NNW1.6 kmh NNW 3.0 mph4.8 kmh 30.16 in1021.3 mb 0.00 in0.0 mm 0.00 in0.0 mm 0.02 in0.5 mm
05:15 AM 27.3°F-2.6°C 25.0°F-3.9°C 91% 1.0 mph NNW1.6 kmh NNW 3.0 mph4.8 kmh 30.16 in1021.3 mb 0.00 in0.0 mm 0.00 in0.0 mm 0.02 in0.5 mm
05:30 AM 27.1°F-2.7°C 25.1°F-3.8°C 92% Calm Calm 3.0 mph4.8 kmh 30.16 in1021.3 mb 0.00 in0.0 mm 0.00 in0.0 mm 0.02 in0.5 mm
05:45 AM 27.1°F-2.7°C 25.1°F-3.8°C 92% 2.0 mph NNW3.2 kmh NNW 4.0 mph6.4 kmh 30.17 in1021.7 mb 0.00 in0.0 mm 0.00 in0.0 mm 0.02 in0.5 mm
06:00 AM 27.1°F-2.7°C 25.1°F-3.8°C 92% 1.0 mph NNW1.6 kmh NNW 4.0 mph6.4 kmh 30.16 in1021.3 mb 0.00 in0.0 mm 0.00 in0.0 mm 0.02 in0.5 mm
06:15 AM 27.1°F-2.7°C 25.1°F-3.8°C 92% Calm Calm -- 30.17 in1021.7 mb 0.00 in0.0 mm 0.00 in0.0 mm 0.02 in0.5 mm
06:30 AM 27.3°F-2.6°C 25.3°F-3.7°C 92% Calm Calm -- 30.17 in1021.7 mb 0.01 in0.3 mm 0.04 in1.0 mm 0.02 in0.5 mm
06:45 AM 27.5°F-2.5°C 25.2°F-3.8°C 91% Calm Calm -- 30.17 in1021.7 mb 0.01 in0.3 mm 0.00 in0.0 mm 0.02 in0.5 mm
07:00 AM 27.7°F-2.4°C 25.4°F-3.7°C 91% Calm Calm -- 30.16 in1021.3 mb 0.02 in0.5 mm 0.01 in0.3 mm 0.03 in0.8 mm
07:15 AM 27.9°F-2.3°C 25.6°F-3.6°C 91% Calm Calm -- 30.16 in1021.3 mb 0.02 in0.5 mm 0.00 in0.0 mm 0.03 in0.8 mm
07:30 AM 27.9°F-2.3°C 25.6°F-3.6°C 91% Calm Calm 3.0 mph4.8 kmh 30.16 in1021.3 mb 0.01 in0.3 mm 0.00 in0.0 mm 0.03 in0.8 mm
07:45 AM 28.0°F-2.2°C 25.8°F-3.4°C 91% 2.0 mph NNW3.2 kmh NNW 3.0 mph4.8 kmh 30.16 in1021.3 mb 0.01 in0.3 mm 0.00 in0.0 mm 0.03 in0.8 mm
08:00 AM 27.9°F-2.3°C 25.6°F-3.6°C 91% 2.0 mph NNW3.2 kmh NNW 5.0 mph8.0 kmh 30.16 in1021.3 mb 0.00 in0.0 mm 0.00 in0.0 mm 0.03 in0.8 mm
08:15 AM 27.7°F-2.4°C 25.4°F-3.7°C 91% 3.0 mph NNW4.8 kmh NNW 6.0 mph9.7 kmh 30.16 in1021.3 mb 0.00 in0.0 mm 0.00 in0.0 mm 0.03 in0.8 mm
08:30 AM 27.7°F-2.4°C 25.4°F-3.7°C 91% 3.0 mph NNW4.8 kmh NNW 6.0 mph9.7 kmh 30.18 in1022.0 mb 0.00 in0.0 mm 0.00 in0.0 mm 0.03 in0.8 mm
08:45 AM 27.7°F-2.4°C 25.4°F-3.7°C 91% 2.0 mph NNW3.2 kmh NNW 6.0 mph9.7 kmh 30.19 in1022.4 mb 0.01 in0.3 mm 0.04 in1.0 mm 0.04 in1.0 mm
09:00 AM 27.7°F-2.4°C 25.4°F-3.7°C 91% 3.0 mph NNW4.8 kmh NNW 6.0 mph9.7 kmh 30.19 in1022.4 mb 0.01 in0.3 mm 0.00 in0.0 mm 0.04 in1.0 mm
09:15 AM 27.7°F-2.4°C 25.4°F-3.7°C 91% 2.0 mph NNW3.2 kmh NNW 5.0 mph8.0 kmh 30.18 in1022.0 mb 0.01 in0.3 mm 0.00 in0.0 mm 0.04 in1.0 mm
09:30 AM 27.7°F-2.4°C 25.4°F-3.7°C 91% 1.0 mph NNW1.6 kmh NNW 4.0 mph6.4 kmh 30.18 in1022.0 mb 0.01 in0.3 mm 0.00 in0.0 mm 0.04 in1.0 mm
09:45 AM 28.0°F-2.2°C 25.5°F-3.6°C 90% 1.0 mph NNW1.6 kmh NNW 4.0 mph6.4 kmh 30.18 in1022.0 mb 0.00 in0.0 mm 0.00 in0.0 mm 0.04 in1.0 mm
10:00 AM 28.2°F-2.1°C 25.7°F-3.5°C 90% 2.0 mph NNW3.2 kmh NNW 4.0 mph6.4 kmh 30.18 in1022.0 mb 0.00 in0.0 mm 0.00 in0.0 mm 0.04 in1.0 mm
10:15 AM 28.2°F-2.1°C 25.7°F-3.5°C 90% 2.0 mph NNW3.2 kmh NNW 6.0 mph9.7 kmh 30.17 in1021.7 mb 0.00 in0.0 mm 0.00 in0.0 mm 0.04 in1.0 mm
10:30 AM 28.2°F-2.1°C 25.7°F-3.5°C 90% 4.0 mph N6.4 kmh N 7.0 mph11.3 kmh 30.17 in1021.7 mb 0.00 in0.0 mm 0.00 in0.0 mm 0.04 in1.0 mm
10:45 AM 28.2°F-2.1°C 25.7°F-3.5°C 90% 3.0 mph N4.8 kmh N 6.0 mph9.7 kmh 30.16 in1021.3 mb 0.00 in0.0 mm 0.00 in0.0 mm 0.04 in1.0 mm
11:00 AM 28.2°F-2.1°C 25.7°F-3.5°C 90% 4.0 mph N6.4 kmh N 8.0 mph12.9 kmh 30.18 in1022.0 mb 0.00 in0.0 mm 0.00 in0.0 mm 0.04 in1.0 mm
11:15 AM 28.2°F-2.1°C 25.7°F-3.5°C 90% 3.0 mph N4.8 kmh N 7.0 mph11.3 kmh 30.16 in1021.3 mb 0.00 in0.0 mm 0.00 in0.0 mm 0.04 in1.0 mm
11:30 AM 28.8°F-1.8°C 26.5°F-3.1°C 91% 2.0 mph N3.2 kmh N 7.0 mph11.3 kmh 30.16 in1021.3 mb 0.00 in0.0 mm 0.00 in0.0 mm 0.04 in1.0 mm
11:45 AM 29.1°F-1.6°C 26.6°F-3.0°C 90% 3.0 mph N4.8 kmh N 5.0 mph8.0 kmh 30.16 in1021.3 mb 0.01 in0.3 mm 0.04 in1.0 mm 0.05 in1.3 mm
12:00 PM 29.3°F-1.5°C 26.7°F-2.9°C 90% 2.0 mph N3.2 kmh N 5.0 mph8.0 kmh 30.16 in1021.3 mb 0.01 in0.3 mm 0.00 in0.0 mm 0.05 in1.3 mm
12:15 PM 29.7°F-1.3°C 27.1°F-2.7°C 90% 3.0 mph N4.8 kmh N 6.0 mph9.7 kmh 30.16 in1021.3 mb 0.01 in0.3 mm 0.00 in0.0 mm 0.05 in1.3 mm
12:30 PM 29.5°F-1.4°C 26.9°F-2.8°C 90% 3.0 mph N4.8 kmh N 7.0 mph11.3 kmh 30.15 in1021.0 mb 0.02 in0.5 mm 0.04 in1.0 mm 0.06 in1.5 mm
12:45 PM 29.7°F-1.3°C 27.4°F-2.6°C 91% 3.0 mph N4.8 kmh N 7.0 mph11.3 kmh 30.14 in1020.7 mb 0.02 in0.5 mm 0.00 in0.0 mm 0.06 in1.5 mm
01:00 PM 29.5°F-1.4°C 27.2°F-2.7°C 91% 4.0 mph NNE6.4 kmh NNE 8.0 mph12.9 kmh 30.14 in1020.7 mb 0.02 in0.5 mm 0.00 in0.0 mm 0.07 in1.8 mm
01:15 PM 29.5°F-1.4°C 27.2°F-2.7°C 91% 4.0 mph N6.4 kmh N 8.0 mph12.9 kmh 30.13 in1020.3 mb 0.02 in0.5 mm 0.00 in0.0 mm 0.07 in1.8 mm
01:30 PM 29.3°F-1.5°C 27.0°F-2.8°C 91% 3.0 mph NNE4.8 kmh NNE 7.0 mph11.3 kmh 30.13 in1020.3 mb 0.02 in0.5 mm 0.00 in0.0 mm 0.07 in1.8 mm
01:45 PM 29.3°F-1.5°C 27.0°F-2.8°C 91% 4.0 mph NNE6.4 kmh NNE 9.0 mph14.5 kmh 30.11 in1019.6 mb 0.02 in0.5 mm 0.00 in0.0 mm 0.08 in2.0 mm
02:00 PM 29.5°F-1.4°C 27.2°F-2.7°C 91% 4.0 mph N6.4 kmh N 9.0 mph14.5 kmh 30.12 in1020.0 mb 0.01 in0.3 mm 0.00 in0.0 mm 0.08 in2.0 mm
02:15 PM 29.3°F-1.5°C 27.0°F-2.8°C 91% 5.0 mph N8.0 kmh N 11.0 mph17.7 kmh 30.13 in1020.3 mb 0.01 in0.3 mm 0.00 in0.0 mm 0.08 in2.0 mm
02:30 PM 29.1°F-1.6°C 26.8°F-2.9°C 91% 6.0 mph N9.7 kmh N 11.0 mph17.7 kmh 30.12 in1020.0 mb 0.01 in0.3 mm 0.00 in0.0 mm 0.08 in2.0 mm
02:45 PM 29.1°F-1.6°C 26.8°F-2.9°C 91% 4.0 mph N6.4 kmh N 10.0 mph16.1 kmh 30.10 in1019.3 mb 0.00 in0.0 mm 0.00 in0.0 mm 0.08 in2.0 mm
03:00 PM 29.1°F-1.6°C 26.8°F-2.9°C 91% 4.0 mph N6.4 kmh N 9.0 mph14.5 kmh 30.10 in1019.3 mb 0.00 in0.0 mm 0.00 in0.0 mm 0.08 in2.0 mm
03:15 PM 29.1°F-1.6°C 27.1°F-2.7°C 92% 5.0 mph N8.0 kmh N 12.0 mph19.3 kmh 30.10 in1019.3 mb 0.01 in0.3 mm 0.04 in1.0 mm 0.09 in2.3 mm
03:30 PM 28.9°F-1.7°C 26.9°F-2.8°C 92% 5.0 mph NNE8.0 kmh NNE 11.0 mph17.7 kmh 30.10 in1019.3 mb 0.02 in0.5 mm 0.04 in1.0 mm 0.10 in2.5 mm
03:45 PM 28.8°F-1.8°C 26.7°F-2.9°C 92% 5.0 mph NNE8.0 kmh NNE 11.0 mph17.7 kmh 30.10 in1019.3 mb 0.04 in1.0 mm 0.08 in2.0 mm 0.12 in3.0 mm
04:00 PM 28.8°F-1.8°C 26.7°F-2.9°C 92% 5.0 mph N8.0 kmh N 11.0 mph17.7 kmh 30.10 in1019.3 mb 0.05 in1.3 mm 0.01 in0.3 mm 0.13 in3.3 mm
04:15 PM 28.8°F-1.8°C 26.7°F-2.9°C 92% 5.0 mph NNE8.0 kmh NNE 11.0 mph17.7 kmh 30.10 in1019.3 mb 0.05 in1.3 mm 0.00 in0.0 mm 0.13 in3.3 mm
04:30 PM 28.8°F-1.8°C 26.7°F-2.9°C 92% 5.0 mph NNE8.0 kmh NNE 10.0 mph16.1 kmh 30.10 in1019.3 mb 0.03 in0.8 mm 0.00 in0.0 mm 0.13 in3.3 mm
04:45 PM 28.6°F-1.9°C 26.6°F-3.0°C 92% 5.0 mph NE8.0 kmh NE 11.0 mph17.7 kmh 30.10 in1019.3 mb 0.02 in0.5 mm 0.00 in0.0 mm 0.14 in3.6 mm
05:00 PM 28.2°F-2.1°C 26.2°F-3.2°C 92% 5.0 mph NE8.0 kmh NE 11.0 mph17.7 kmh 30.10 in1019.3 mb 0.03 in0.8 mm 0.01 in0.3 mm 0.16 in4.1 mm
05:15 PM 28.0°F-2.2°C 26.0°F-3.3°C 92% 6.0 mph NE9.7 kmh NE 15.0 mph24.1 kmh 30.11 in1019.6 mb 0.03 in0.8 mm 0.00 in0.0 mm 0.17 in4.3 mm
05:30 PM 28.2°F-2.1°C 26.2°F-3.2°C 92% 6.0 mph NE9.7 kmh NE 9.0 mph14.5 kmh 30.11 in1019.6 mb 0.05 in1.3 mm 0.08 in2.0 mm 0.18 in4.6 mm
05:45 PM 28.0°F-2.2°C 26.3°F-3.2°C 93% 6.0 mph NE9.7 kmh NE 12.0 mph19.3 kmh 30.11 in1019.6 mb 0.05 in1.3 mm 0.00 in0.0 mm 0.19 in4.8 mm
06:00 PM 28.0°F-2.2°C 26.0°F-3.3°C 92% 6.0 mph NE9.7 kmh NE 12.0 mph19.3 kmh 30.11 in1019.6 mb 0.05 in1.3 mm 0.00 in0.0 mm 0.20 in5.1 mm
06:15 PM 28.0°F-2.2°C 26.0°F-3.3°C 92% 6.0 mph NE9.7 kmh NE 13.0 mph20.9 kmh 30.11 in1019.6 mb 0.04 in1.0 mm 0.00 in0.0 mm 0.20 in5.1 mm
06:30 PM 27.9°F-2.3°C 26.1°F-3.3°C 93% 7.0 mph NE11.3 kmh NE 13.0 mph20.9 kmh 30.12 in1020.0 mb 0.03 in0.8 mm 0.00 in0.0 mm 0.21 in5.3 mm
06:45 PM 28.0°F-2.2°C 26.3°F-3.2°C 93% 8.0 mph NE12.9 kmh NE 13.0 mph20.9 kmh 30.13 in1020.3 mb 0.03 in0.8 mm 0.00 in0.0 mm 0.22 in5.6 mm
07:00 PM 28.0°F-2.2°C 26.3°F-3.2°C 93% 7.0 mph NE11.3 kmh NE 13.0 mph20.9 kmh 30.13 in1020.3 mb 0.02 in0.5 mm 0.00 in0.0 mm 0.23 in5.8 mm
07:15 PM 28.0°F-2.2°C 26.3°F-3.2°C 93% 7.0 mph NE11.3 kmh NE 15.0 mph24.1 kmh 30.13 in1020.3 mb 0.02 in0.5 mm 0.00 in0.0 mm 0.23 in5.8 mm
07:30 PM 28.0°F-2.2°C 26.3°F-3.2°C 93% 8.0 mph NE12.9 kmh NE 14.0 mph22.5 kmh 30.14 in1020.7 mb 0.02 in0.5 mm 0.00 in0.0 mm 0.24 in6.1 mm
07:45 PM 27.9°F-2.3°C 26.1°F-3.3°C 93% 7.0 mph NE11.3 kmh NE 15.0 mph24.1 kmh 30.14 in1020.7 mb 0.02 in0.5 mm 0.00 in0.0 mm 0.24 in6.1 mm
08:00 PM 27.9°F-2.3°C 26.1°F-3.3°C 93% 5.0 mph NE8.0 kmh NE 10.0 mph16.1 kmh 30.14 in1020.7 mb 0.02 in0.5 mm 0.00 in0.0 mm 0.25 in6.4 mm
08:15 PM 27.9°F-2.3°C 26.1°F-3.3°C 93% 5.0 mph NE8.0 kmh NE 12.0 mph19.3 kmh 30.16 in1021.3 mb 0.02 in0.5 mm 0.00 in0.0 mm 0.25 in6.4 mm
08:30 PM 27.9°F-2.3°C 26.1°F-3.3°C 93% 6.0 mph NE9.7 kmh NE 10.0 mph16.1 kmh 30.16 in1021.3 mb 0.02 in0.5 mm 0.00 in0.0 mm 0.26 in6.6 mm
08:45 PM 27.9°F-2.3°C 26.1°F-3.3°C 93% 6.0 mph NE9.7 kmh NE 13.0 mph20.9 kmh 30.16 in1021.3 mb 0.02 in0.5 mm 0.00 in0.0 mm 0.26 in6.6 mm
09:00 PM 27.9°F-2.3°C 26.1°F-3.3°C 93% 6.0 mph NE9.7 kmh NE 13.0 mph20.9 kmh 30.15 in1021.0 mb 0.01 in0.3 mm 0.00 in0.0 mm 0.26 in6.6 mm
09:15 PM 28.0°F-2.2°C 26.3°F-3.2°C 93% 4.0 mph NE6.4 kmh NE 10.0 mph16.1 kmh 30.15 in1021.0 mb 0.02 in0.5 mm 0.04 in1.0 mm 0.27 in6.9 mm
09:30 PM 28.0°F-2.2°C 26.3°F-3.2°C 93% 4.0 mph NE6.4 kmh NE 10.0 mph16.1 kmh 30.14 in1020.7 mb 0.01 in0.3 mm 0.00 in0.0 mm 0.27 in6.9 mm
09:45 PM 28.2°F-2.1°C 26.5°F-3.1°C 93% 6.0 mph NE9.7 kmh NE 11.0 mph17.7 kmh 30.14 in1020.7 mb 0.01 in0.3 mm 0.00 in0.0 mm 0.27 in6.9 mm
10:00 PM 28.4°F-2.0°C 26.6°F-3.0°C 93% 5.0 mph NE8.0 kmh NE 10.0 mph16.1 kmh 30.14 in1020.7 mb 0.01 in0.3 mm 0.00 in0.0 mm 0.27 in6.9 mm
10:15 PM 28.4°F-2.0°C 26.4°F-3.1°C 92% 4.0 mph NE6.4 kmh NE 8.0 mph12.9 kmh 30.14 in1020.7 mb 0.00 in0.0 mm 0.00 in0.0 mm 0.27 in6.9 mm
10:30 PM 28.6°F-1.9°C 26.6°F-3.0°C 92% 4.0 mph NE6.4 kmh NE 8.0 mph12.9 kmh 30.15 in1021.0 mb 0.00 in0.0 mm 0.00 in0.0 mm 0.27 in6.9 mm
10:45 PM 28.6°F-1.9°C 26.6°F-3.0°C 92% 5.0 mph NE8.0 kmh NE 11.0 mph17.7 kmh 30.16 in1021.3 mb 0.00 in0.0 mm 0.00 in0.0 mm 0.27 in6.9 mm
11:00 PM 28.6°F-1.9°C 26.3°F-3.2°C 91% 4.0 mph NE6.4 kmh NE 9.0 mph14.5 kmh 30.16 in1021.3 mb 0.00 in0.0 mm 0.00 in0.0 mm 0.27 in6.9 mm
11:15 PM 28.4°F-2.0°C 26.1°F-3.3°C 91% 5.0 mph NE8.0 kmh NE 12.0 mph19.3 kmh 30.16 in1021.3 mb 0.00 in0.0 mm 0.00 in0.0 mm 0.27 in6.9 mm
11:30 PM 28.2°F-2.1°C 25.9°F-3.4°C 91% 5.0 mph NE8.0 kmh NE 9.0 mph14.5 kmh 30.16 in1021.3 mb 0.00 in0.0 mm 0.00 in0.0 mm 0.27 in6.9 mm
11:45 PM 28.4°F-2.0°C 26.1°F-3.3°C 91% 4.0 mph NE6.4 kmh NE 7.0 mph11.3 kmh 30.16 in1021.3 mb 0.00 in0.0 mm 0.00 in0.0 mm 0.27 in6.9 mm